createdAt,value
2022-09-14T00:00:17.000Z,69.2
2022-09-14T00:01:33.000Z,69.1
2022-09-14T00:02:50.000Z,69.2
2022-09-14T00:04:06.000Z,69.2
2022-09-14T00:05:22.000Z,69.2
2022-09-14T00:06:38.000Z,69
2022-09-14T00:07:53.000Z,68.9
2022-09-14T00:09:10.000Z,69
2022-09-14T00:10:26.000Z,69
2022-09-14T00:11:42.000Z,69.3
2022-09-14T00:12:57.000Z,69.5
2022-09-14T00:14:13.000Z,69.7
2022-09-14T00:16:46.000Z,69.6
2022-09-14T00:18:01.000Z,69.5
2022-09-14T00:19:16.000Z,69.4
2022-09-14T00:20:32.000Z,69.3
2022-09-14T00:21:48.000Z,69.3
2022-09-14T00:23:03.000Z,68.9
2022-09-14T00:24:19.000Z,69
2022-09-14T00:25:35.000Z,69.1
2022-09-14T00:26:51.000Z,69.2
2022-09-14T00:29:24.000Z,69
2022-09-14T00:30:40.000Z,69.1
2022-09-14T00:31:56.000Z,69.3
2022-09-14T00:33:12.000Z,69.2
2022-09-14T00:34:29.000Z,69.2
2022-09-14T00:35:45.000Z,69.1
2022-09-14T00:37:01.000Z,69.3
2022-09-14T00:38:17.000Z,69.2
2022-09-14T00:39:32.000Z,69
2022-09-14T00:42:05.000Z,69
2022-09-14T00:43:20.000Z,69
2022-09-14T00:44:35.000Z,69.1
2022-09-14T00:45:51.000Z,68.9
2022-09-14T00:47:08.000Z,68.9
2022-09-14T00:48:24.000Z,69
2022-09-14T00:49:40.000Z,68.9
2022-09-14T00:50:56.000Z,68.7
2022-09-14T00:52:12.000Z,68.9
2022-09-14T00:53:29.000Z,69
2022-09-14T00:54:45.000Z,69
2022-09-14T00:56:01.000Z,69.1
2022-09-14T00:57:16.000Z,69.3
2022-09-14T00:58:31.000Z,69.2
2022-09-14T00:59:48.000Z,69
2022-09-14T01:01:04.000Z,69
2022-09-14T01:02:20.000Z,69.1
2022-09-14T01:03:36.000Z,69.1
2022-09-14T01:04:52.000Z,69.1
2022-09-14T01:06:09.000Z,69.1
2022-09-14T01:07:25.000Z,69.1
2022-09-14T01:08:41.000Z,69.2
2022-09-14T01:09:57.000Z,69.1
2022-09-14T01:11:13.000Z,69.1
2022-09-14T01:12:30.000Z,68.6
2022-09-14T01:13:46.000Z,68.7
2022-09-14T01:15:01.000Z,69
2022-09-14T01:16:17.000Z,69.2
2022-09-14T01:17:33.000Z,69.3
2022-09-14T01:18:50.000Z,69.3
2022-09-14T01:20:06.000Z,69.4
2022-09-14T01:21:22.000Z,69.6
2022-09-14T01:22:38.000Z,69.7
2022-09-14T01:23:53.000Z,69.7
2022-09-14T01:25:10.000Z,69.8
2022-09-14T01:26:25.000Z,69.7
2022-09-14T01:27:40.000Z,70
2022-09-14T01:28:55.000Z,70
2022-09-14T01:30:11.000Z,69.9
2022-09-14T01:32:44.000Z,69.7
2022-09-14T01:34:00.000Z,69.9
2022-09-14T01:35:16.000Z,69.8
2022-09-14T01:36:32.000Z,70
2022-09-14T01:37:49.000Z,70.1
2022-09-14T01:39:05.000Z,70.1
2022-09-14T01:40:21.000Z,70.2
2022-09-14T01:41:37.000Z,70.4
2022-09-14T01:42:53.000Z,70.5
2022-09-14T01:44:09.000Z,70.7
2022-09-14T01:45:25.000Z,70.8
2022-09-14T01:46:41.000Z,70.8
2022-09-14T01:47:57.000Z,70.8
2022-09-14T01:49:13.000Z,70.9
2022-09-14T01:50:29.000Z,71
2022-09-14T01:51:46.000Z,71
2022-09-14T01:53:02.000Z,70.9
2022-09-14T01:54:18.000Z,70.8
2022-09-14T01:55:33.000Z,71
2022-09-14T01:56:48.000Z,71.2
2022-09-14T01:58:05.000Z,70.9
2022-09-14T01:59:21.000Z,70.9
2022-09-14T02:01:52.000Z,71.3
2022-09-14T02:03:07.000Z,71.3
2022-09-14T02:04:23.000Z,71.9
2022-09-14T02:05:39.000Z,72.2
2022-09-14T02:06:55.000Z,72.2
2022-09-14T02:08:11.000Z,72.2
2022-09-14T02:09:27.000Z,72.2
2022-09-14T02:10:44.000Z,72.2
2022-09-14T02:12:00.000Z,72
2022-09-14T02:13:16.000Z,72.1
2022-09-14T02:14:32.000Z,72
2022-09-14T02:15:48.000Z,72
2022-09-14T02:17:05.000Z,72
2022-09-14T02:18:21.000Z,71.8
2022-09-14T02:19:37.000Z,71.8
2022-09-14T02:20:52.000Z,72
2022-09-14T02:22:08.000Z,72
2022-09-14T02:23:25.000Z,72.1
2022-09-14T02:24:41.000Z,72.1
2022-09-14T02:25:57.000Z,71.8
2022-09-14T02:27:13.000Z,72
2022-09-14T02:28:29.000Z,72.2
2022-09-14T02:29:45.000Z,72.3
2022-09-14T02:31:00.000Z,72.5
2022-09-14T02:32:16.000Z,72.5
2022-09-14T02:33:31.000Z,72.6
2022-09-14T02:34:46.000Z,72.5
2022-09-14T02:36:03.000Z,72.6
2022-09-14T02:37:19.000Z,72.7
2022-09-14T02:38:35.000Z,72.7
2022-09-14T02:39:51.000Z,72.8
2022-09-14T02:41:07.000Z,72.8
2022-09-14T02:42:24.000Z,72.8
2022-09-14T02:43:40.000Z,72.7
2022-09-14T02:44:56.000Z,72.7
2022-09-14T02:46:12.000Z,72.7
2022-09-14T02:47:28.000Z,72.7
2022-09-14T02:48:45.000Z,72.6
2022-09-14T02:50:01.000Z,72.8
2022-09-14T02:51:16.000Z,72.9
2022-09-14T02:52:32.000Z,72.9
2022-09-14T02:53:48.000Z,72.9
2022-09-14T02:55:05.000Z,73
2022-09-14T02:56:21.000Z,73.1
2022-09-14T02:57:37.000Z,73.2
2022-09-14T02:58:53.000Z,73
2022-09-14T03:00:08.000Z,73
2022-09-14T03:01:24.000Z,73
2022-09-14T03:02:40.000Z,73.1
2022-09-14T03:03:55.000Z,73.2
2022-09-14T03:05:10.000Z,73.1
2022-09-14T03:06:26.000Z,73.2
2022-09-14T03:07:43.000Z,73.3
2022-09-14T03:08:59.000Z,73.5
2022-09-14T03:10:15.000Z,73.6
2022-09-14T03:11:31.000Z,73.7
2022-09-14T03:12:47.000Z,73.7
2022-09-14T03:14:04.000Z,73.7
2022-09-14T03:15:20.000Z,73.8
2022-09-14T03:16:36.000Z,73.8
2022-09-14T03:17:52.000Z,73.9
2022-09-14T03:19:08.000Z,73.7
2022-09-14T03:20:25.000Z,73.7
2022-09-14T03:21:40.000Z,73.6
2022-09-14T03:22:56.000Z,73.7
2022-09-14T03:24:12.000Z,74.5
2022-09-14T03:25:28.000Z,74.9
2022-09-14T03:26:44.000Z,75.5
2022-09-14T03:28:01.000Z,75.9
2022-09-14T03:29:17.000Z,76
2022-09-14T03:30:32.000Z,76.4
2022-09-14T03:31:48.000Z,76.8
2022-09-14T03:33:04.000Z,77
2022-09-14T03:34:19.000Z,77
2022-09-14T03:35:34.000Z,77
2022-09-14T03:36:50.000Z,76.8
2022-09-14T03:39:23.000Z,76.3
2022-09-14T03:40:39.000Z,76.2
2022-09-14T03:41:55.000Z,76.1
2022-09-14T03:43:11.000Z,76
2022-09-14T03:44:27.000Z,75.9
2022-09-14T03:45:43.000Z,75.8
2022-09-14T03:47:00.000Z,75.7
2022-09-14T03:48:16.000Z,75.6
2022-09-14T03:49:32.000Z,75.6
2022-09-14T03:50:48.000Z,75.5
2022-09-14T03:52:03.000Z,75.4
2022-09-14T03:53:20.000Z,75.3
2022-09-14T03:54:36.000Z,75.3
2022-09-14T03:55:52.000Z,75.1
2022-09-14T03:57:08.000Z,74.9
2022-09-14T03:58:24.000Z,74.8
2022-09-14T03:59:41.000Z,74.9
2022-09-14T04:00:57.000Z,74.8
2022-09-14T04:02:12.000Z,74.9
2022-09-14T04:03:27.000Z,75.2
2022-09-14T04:04:43.000Z,75.3
2022-09-14T04:05:59.000Z,75.4
2022-09-14T04:07:14.000Z,75.6
2022-09-14T04:08:30.000Z,75.7
2022-09-14T04:09:46.000Z,75.6
2022-09-14T04:12:19.000Z,75.6
2022-09-14T04:13:35.000Z,75.5
2022-09-14T04:14:51.000Z,75.4
2022-09-14T04:16:07.000Z,75.3
2022-09-14T04:17:23.000Z,75.1
2022-09-14T04:18:40.000Z,75.1
2022-09-14T04:19:56.000Z,75
2022-09-14T04:21:12.000Z,74.9
2022-09-14T04:22:28.000Z,74.8
2022-09-14T04:23:43.000Z,74.6
2022-09-14T04:25:00.000Z,74.6
2022-09-14T04:26:16.000Z,74.4
2022-09-14T04:27:31.000Z,74.4
2022-09-14T04:28:47.000Z,74.5
2022-09-14T04:30:03.000Z,74.4
2022-09-14T04:31:20.000Z,74.4
2022-09-14T04:32:36.000Z,74.4
2022-09-14T04:33:51.000Z,74.5
2022-09-14T04:35:06.000Z,74.3
2022-09-14T04:36:21.000Z,74.3
2022-09-14T04:37:37.000Z,74.4
2022-09-14T04:38:53.000Z,74.4
2022-09-14T04:40:09.000Z,74.5
2022-09-14T04:42:41.000Z,74.7
2022-09-14T04:43:58.000Z,74.9
2022-09-14T04:45:14.000Z,75.2
2022-09-14T04:46:30.000Z,75.3
2022-09-14T04:47:46.000Z,75.4
2022-09-14T04:49:02.000Z,75.6
2022-09-14T04:50:19.000Z,75.8
2022-09-14T04:51:35.000Z,76.1
2022-09-14T04:52:51.000Z,76.2
2022-09-14T04:54:06.000Z,76.2
2022-09-14T04:55:22.000Z,76.1
2022-09-14T04:56:39.000Z,76.1
2022-09-14T04:57:55.000Z,76.3
2022-09-14T04:59:11.000Z,76.4
2022-09-14T05:00:27.000Z,76.5
2022-09-14T05:01:43.000Z,76.8
2022-09-14T05:03:00.000Z,76.8
2022-09-14T05:04:16.000Z,76.7
2022-09-14T05:05:31.000Z,76.7
2022-09-14T05:06:46.000Z,76.4
2022-09-14T05:08:02.000Z,76.2
2022-09-14T05:09:19.000Z,76.1
2022-09-14T05:10:34.000Z,75.8
2022-09-14T05:11:49.000Z,75.4
2022-09-14T05:13:05.000Z,75.3
2022-09-14T05:14:21.000Z,75.3
2022-09-14T05:15:38.000Z,74.5
2022-09-14T05:16:54.000Z,74.5
2022-09-14T05:18:10.000Z,74.8
2022-09-14T05:19:26.000Z,74.6
2022-09-14T05:20:42.000Z,74.6
2022-09-14T05:21:59.000Z,74.7
2022-09-14T05:23:15.000Z,74.7
2022-09-14T05:24:31.000Z,74.7
2022-09-14T05:25:47.000Z,74.9
2022-09-14T05:27:03.000Z,74.8
2022-09-14T05:28:18.000Z,74.7
2022-09-14T05:29:35.000Z,75.1
2022-09-14T05:30:51.000Z,75.3
2022-09-14T05:32:07.000Z,75.5
2022-09-14T05:33:23.000Z,75.5
2022-09-14T05:34:39.000Z,75.5
2022-09-14T05:35:56.000Z,75.8
2022-09-14T05:37:11.000Z,75.6
2022-09-14T05:38:26.000Z,76
2022-09-14T05:39:41.000Z,76.1
2022-09-14T05:40:57.000Z,76.1
2022-09-14T05:42:13.000Z,76.3
2022-09-14T05:43:29.000Z,76.7
2022-09-14T05:44:45.000Z,76.7
2022-09-14T05:46:01.000Z,76.6
2022-09-14T05:47:17.000Z,76.6
2022-09-14T05:48:34.000Z,76.5
2022-09-14T05:49:50.000Z,76.4
2022-09-14T05:51:06.000Z,76.5
2022-09-14T05:52:22.000Z,76.7
2022-09-14T05:53:38.000Z,76.5
2022-09-14T05:54:55.000Z,76.5
2022-09-14T05:56:11.000Z,76.6
2022-09-14T05:57:26.000Z,76.3
2022-09-14T05:58:42.000Z,76
2022-09-14T05:59:58.000Z,76
2022-09-14T06:01:15.000Z,76.3
2022-09-14T06:02:31.000Z,76.5
2022-09-14T06:03:47.000Z,76.4
2022-09-14T06:05:03.000Z,76.7
2022-09-14T06:06:18.000Z,76.4
2022-09-14T06:07:34.000Z,76.1
2022-09-14T06:08:49.000Z,76
2022-09-14T06:10:04.000Z,76.1
2022-09-14T06:11:20.000Z,76
2022-09-14T06:12:36.000Z,76.1
2022-09-14T06:13:53.000Z,75.9
2022-09-14T06:15:09.000Z,75.9
2022-09-14T06:16:25.000Z,75.7
2022-09-14T06:17:41.000Z,75.7
2022-09-14T06:18:57.000Z,76
2022-09-14T06:20:14.000Z,75.7
2022-09-14T06:21:30.000Z,75.7
2022-09-14T06:24:02.000Z,75.8
2022-09-14T06:25:18.000Z,75.6
2022-09-14T06:26:34.000Z,75.6
2022-09-14T06:27:50.000Z,75.3
2022-09-14T06:29:06.000Z,75.3
2022-09-14T06:30:22.000Z,75.1
2022-09-14T06:31:38.000Z,74.7
2022-09-14T06:32:55.000Z,75.2
2022-09-14T06:34:11.000Z,75.6
2022-09-14T06:35:27.000Z,76
2022-09-14T06:36:42.000Z,76.1
2022-09-14T06:37:57.000Z,76
2022-09-14T06:39:13.000Z,76.1
2022-09-14T06:40:28.000Z,76.8
2022-09-14T06:41:44.000Z,76.8
2022-09-14T06:43:00.000Z,76.4
2022-09-14T06:44:17.000Z,76.2
2022-09-14T06:45:33.000Z,77
2022-09-14T06:49:21.000Z,76
2022-09-14T06:50:37.000Z,75.8
2022-09-14T06:51:54.000Z,76
2022-09-14T06:53:10.000Z,76.2
2022-09-14T06:54:26.000Z,76.4
2022-09-14T06:55:41.000Z,76.3
2022-09-14T06:56:56.000Z,76.5
2022-09-14T06:58:13.000Z,76.4
2022-09-14T06:59:29.000Z,76.4
2022-09-14T07:00:45.000Z,76.6
2022-09-14T07:02:01.000Z,76.1
2022-09-14T07:03:17.000Z,76.3
2022-09-14T07:04:34.000Z,76.4
2022-09-14T07:05:50.000Z,76.6
2022-09-14T07:07:06.000Z,75.8
2022-09-14T07:08:22.000Z,76.4
2022-09-14T07:09:37.000Z,76
2022-09-14T07:10:53.000Z,75.2
2022-09-14T07:12:09.000Z,75.7
2022-09-14T07:13:25.000Z,76.3
2022-09-14T07:14:41.000Z,76.8
2022-09-14T07:15:57.000Z,76.5
2022-09-14T07:17:14.000Z,76.8
2022-09-14T07:18:30.000Z,77.7
2022-09-14T07:19:46.000Z,77.5
2022-09-14T07:21:02.000Z,77.2
2022-09-14T07:22:18.000Z,77.2
2022-09-14T07:23:34.000Z,77
2022-09-14T07:24:51.000Z,77.5
2022-09-14T07:27:23.000Z,77.2
2022-09-14T07:28:38.000Z,77.1
2022-09-14T07:31:11.000Z,77.8
2022-09-14T07:32:26.000Z,77.9
2022-09-14T07:33:41.000Z,78.8
2022-09-14T07:34:57.000Z,79.2
2022-09-14T07:36:13.000Z,79.3
2022-09-14T07:37:30.000Z,79.7
2022-09-14T07:38:46.000Z,79.7
2022-09-14T07:40:02.000Z,79.7
2022-09-14T07:41:18.000Z,80.6
2022-09-14T07:42:34.000Z,80.6
2022-09-14T07:43:51.000Z,80.6
2022-09-14T07:45:07.000Z,79.7
2022-09-14T07:46:22.000Z,79.1
2022-09-14T07:47:37.000Z,79.1
2022-09-14T07:48:53.000Z,78.6
2022-09-14T07:50:10.000Z,78.5
2022-09-14T07:51:26.000Z,78.6
2022-09-14T07:52:42.000Z,78.8
2022-09-14T07:53:58.000Z,79.2
2022-09-14T07:55:14.000Z,80
2022-09-14T07:56:31.000Z,80.4
2022-09-14T07:57:47.000Z,80.9
2022-09-14T07:59:03.000Z,81.3
2022-09-14T08:00:19.000Z,81.4
2022-09-14T08:01:35.000Z,81.5
2022-09-14T08:02:52.000Z,81.5
2022-09-14T08:04:07.000Z,80.8
2022-09-14T08:05:23.000Z,80.4
2022-09-14T08:06:39.000Z,79.7
2022-09-14T08:07:55.000Z,79.9
2022-09-14T08:09:12.000Z,80
2022-09-14T08:10:28.000Z,80.2
2022-09-14T08:11:44.000Z,80.5
2022-09-14T08:12:59.000Z,81
2022-09-14T08:14:14.000Z,80.8
2022-09-14T08:15:30.000Z,80.2
2022-09-14T08:16:46.000Z,80.2
2022-09-14T08:18:02.000Z,80.5
2022-09-14T08:19:18.000Z,80.8
2022-09-14T08:20:34.000Z,81
2022-09-14T08:21:51.000Z,81.3
2022-09-14T08:23:07.000Z,81.6
2022-09-14T08:24:23.000Z,81.5
2022-09-14T08:25:39.000Z,82.1
2022-09-14T08:26:55.000Z,82
2022-09-14T08:28:12.000Z,82
2022-09-14T08:29:28.000Z,82.6
2022-09-14T08:30:44.000Z,82.8
2022-09-14T08:32:00.000Z,82.1
2022-09-14T08:33:16.000Z,81.6
2022-09-14T08:34:33.000Z,81.7
2022-09-14T08:35:48.000Z,81.5
2022-09-14T08:37:04.000Z,81.5
2022-09-14T08:38:20.000Z,81.3
2022-09-14T08:40:53.000Z,81.3
2022-09-14T08:43:24.000Z,81.7
2022-09-14T08:44:39.000Z,81.3
2022-09-14T08:45:54.000Z,81.7
2022-09-14T08:47:10.000Z,81.8
2022-09-14T08:48:25.000Z,81
2022-09-14T08:49:41.000Z,80.5
2022-09-14T08:50:57.000Z,80.4
2022-09-14T08:52:13.000Z,79.7
2022-09-14T08:53:30.000Z,80.2
2022-09-14T08:54:46.000Z,80.3
2022-09-14T08:56:02.000Z,80
2022-09-14T08:57:18.000Z,80.8
2022-09-14T08:58:34.000Z,80.5
2022-09-14T08:59:51.000Z,80.4
2022-09-14T09:01:07.000Z,80.6
2022-09-14T09:02:23.000Z,80.7
2022-09-14T09:03:39.000Z,80.6
2022-09-14T09:04:54.000Z,80.7
2022-09-14T09:06:11.000Z,80.7
2022-09-14T09:08:43.000Z,80.4
2022-09-14T09:09:59.000Z,80.1
2022-09-14T09:11:15.000Z,79.9
2022-09-14T09:12:32.000Z,79.9
2022-09-14T09:13:48.000Z,80.1
2022-09-14T09:15:03.000Z,80.4
2022-09-14T09:16:18.000Z,80.4
2022-09-14T09:17:33.000Z,80.3
2022-09-14T09:18:49.000Z,80.5
2022-09-14T09:21:21.000Z,81.2
2022-09-14T09:22:37.000Z,81
2022-09-14T09:23:53.000Z,81.2
2022-09-14T09:25:10.000Z,81.3
2022-09-14T09:26:26.000Z,81.3
2022-09-14T09:27:42.000Z,81.4
2022-09-14T09:28:58.000Z,81.3
2022-09-14T09:30:14.000Z,81.2
2022-09-14T09:31:31.000Z,81
2022-09-14T09:32:47.000Z,80.9
2022-09-14T09:34:03.000Z,81.1
2022-09-14T09:35:19.000Z,80.9
2022-09-14T09:36:34.000Z,80.5
2022-09-14T09:37:51.000Z,80.5
2022-09-14T09:39:07.000Z,81.2
2022-09-14T09:40:23.000Z,81.2
2022-09-14T09:41:39.000Z,81.7
2022-09-14T09:42:55.000Z,81.8
2022-09-14T09:44:11.000Z,82.1
2022-09-14T09:45:27.000Z,82.1
2022-09-14T09:46:42.000Z,82.2
2022-09-14T09:47:57.000Z,82
2022-09-14T09:49:12.000Z,82.2
2022-09-14T09:50:29.000Z,82.2
2022-09-14T09:51:45.000Z,81.9
2022-09-14T09:53:01.000Z,81.3
2022-09-14T09:54:17.000Z,80.9
2022-09-14T09:55:33.000Z,80
2022-09-14T09:56:50.000Z,80.5
2022-09-14T09:58:06.000Z,80.3
2022-09-14T09:59:22.000Z,79.8
2022-09-14T10:00:38.000Z,79.5
2022-09-14T10:01:54.000Z,78.6
2022-09-14T10:03:11.000Z,77.8
2022-09-14T10:04:27.000Z,78.2
2022-09-14T10:05:42.000Z,79.2
2022-09-14T10:06:58.000Z,79.3
2022-09-14T10:08:14.000Z,80
2022-09-14T10:09:30.000Z,79.7
2022-09-14T10:10:47.000Z,79.9
2022-09-14T10:12:03.000Z,79.9
2022-09-14T10:13:19.000Z,79.8
2022-09-14T10:14:34.000Z,80.2
2022-09-14T10:15:50.000Z,80.5
2022-09-14T10:17:05.000Z,80.5
2022-09-14T10:18:20.000Z,80.3
2022-09-14T10:19:36.000Z,79.8
2022-09-14T10:20:52.000Z,80
2022-09-14T10:22:09.000Z,80
2022-09-14T10:23:25.000Z,78.8
2022-09-14T10:24:41.000Z,79.5
2022-09-14T10:25:57.000Z,79.8
2022-09-14T10:27:13.000Z,79.8
2022-09-14T10:28:30.000Z,80
2022-09-14T10:29:46.000Z,80.3
2022-09-14T10:31:02.000Z,80.8
2022-09-14T10:32:18.000Z,81.2
2022-09-14T10:33:34.000Z,80.4
2022-09-14T10:34:50.000Z,81.1
2022-09-14T10:36:06.000Z,81.8
2022-09-14T10:37:22.000Z,82.3
2022-09-14T10:38:38.000Z,82.3
2022-09-14T10:39:54.000Z,82.7
2022-09-14T10:41:10.000Z,82.6
2022-09-14T10:42:27.000Z,82.8
2022-09-14T10:43:42.000Z,82.3
2022-09-14T10:44:57.000Z,82.1
2022-09-14T10:46:13.000Z,81.7
2022-09-14T10:47:29.000Z,81.2
2022-09-14T10:48:46.000Z,81
2022-09-14T10:50:02.000Z,80.9
2022-09-14T10:51:18.000Z,80.7
2022-09-14T10:52:34.000Z,80.6
2022-09-14T10:53:50.000Z,81.3
2022-09-14T10:55:07.000Z,81.7
2022-09-14T10:56:23.000Z,81.9
2022-09-14T10:57:39.000Z,82.1
2022-09-14T10:58:55.000Z,81.9
2022-09-14T11:00:11.000Z,82
2022-09-14T11:01:27.000Z,82.2
2022-09-14T11:02:43.000Z,82.2
2022-09-14T11:03:59.000Z,82.4
2022-09-14T11:05:15.000Z,82.3
2022-09-14T11:06:31.000Z,82.4
2022-09-14T11:07:48.000Z,82.6
2022-09-14T11:09:04.000Z,82.6
2022-09-14T11:10:19.000Z,82.6
2022-09-14T11:11:34.000Z,82.7
2022-09-14T11:12:49.000Z,82.6
2022-09-14T11:14:05.000Z,82.5
2022-09-14T11:15:21.000Z,82.6
2022-09-14T11:16:37.000Z,82.6
2022-09-14T11:17:53.000Z,82.4
2022-09-14T11:19:09.000Z,82.6
2022-09-14T11:20:25.000Z,82.5
2022-09-14T11:21:40.000Z,82.2
2022-09-14T11:22:56.000Z,82.5
2022-09-14T11:24:12.000Z,82.6
2022-09-14T11:25:28.000Z,82.7
2022-09-14T11:28:01.000Z,82.6
2022-09-14T11:29:17.000Z,82.6
2022-09-14T11:30:33.000Z,81.6
2022-09-14T11:31:49.000Z,81.8
2022-09-14T11:33:06.000Z,82.1
2022-09-14T11:34:22.000Z,82.2
2022-09-14T11:35:38.000Z,82.1
2022-09-14T11:36:54.000Z,81.3
2022-09-14T11:38:09.000Z,81.1
2022-09-14T11:39:26.000Z,81.6
2022-09-14T11:40:42.000Z,81.6
2022-09-14T11:41:58.000Z,81.7
2022-09-14T11:43:14.000Z,82.2
2022-09-14T11:44:30.000Z,82.9
2022-09-14T11:45:47.000Z,82.6
2022-09-14T11:47:03.000Z,82.6
2022-09-14T11:48:18.000Z,82.9
2022-09-14T11:49:33.000Z,82.9
2022-09-14T11:50:48.000Z,82.5
2022-09-14T11:53:20.000Z,81.9
2022-09-14T11:54:36.000Z,82.2
2022-09-14T11:55:52.000Z,82.4
2022-09-14T11:57:08.000Z,82.4
2022-09-14T11:58:25.000Z,82.5
2022-09-14T11:59:41.000Z,82.8
2022-09-14T12:00:57.000Z,82.7
2022-09-14T12:02:13.000Z,82
2022-09-14T12:03:29.000Z,81.5
2022-09-14T12:04:46.000Z,81.3
2022-09-14T12:06:02.000Z,79.8
2022-09-14T12:07:18.000Z,80.6
2022-09-14T12:08:33.000Z,82.2
2022-09-14T12:09:49.000Z,82.2
2022-09-14T12:11:06.000Z,81.7
2022-09-14T12:12:22.000Z,81
2022-09-14T12:13:38.000Z,80.1
2022-09-14T12:14:54.000Z,81.4
2022-09-14T12:16:10.000Z,80.7
2022-09-14T12:17:27.000Z,80.9
2022-09-14T12:18:42.000Z,81.3
2022-09-14T12:19:57.000Z,80.9
2022-09-14T12:21:12.000Z,79.6
2022-09-14T12:22:27.000Z,78.7
2022-09-14T12:23:44.000Z,78.4
2022-09-14T12:25:00.000Z,78.2
2022-09-14T12:26:16.000Z,77.7
2022-09-14T12:27:32.000Z,77.4
2022-09-14T12:28:48.000Z,77.1
2022-09-14T12:31:21.000Z,76
2022-09-14T12:32:37.000Z,75.8
2022-09-14T12:33:53.000Z,75.7
2022-09-14T12:35:09.000Z,76.4
2022-09-14T12:36:26.000Z,77.2
2022-09-14T12:37:42.000Z,77.2
2022-09-14T12:38:57.000Z,76.4
2022-09-14T12:40:13.000Z,76.6
2022-09-14T12:41:29.000Z,77.3
2022-09-14T12:42:46.126Z,77.3
2022-09-14T12:44:02.000Z,76.9
2022-09-14T12:45:18.000Z,77.1
2022-09-14T12:46:34.000Z,77.5
2022-09-14T12:47:50.000Z,77.9
2022-09-14T12:49:06.000Z,77.7
2022-09-14T12:50:21.000Z,77.8
2022-09-14T12:51:36.000Z,78
2022-09-14T12:52:51.000Z,78.3
2022-09-14T12:54:07.000Z,78.5
2022-09-14T12:55:24.000Z,79
2022-09-14T12:56:40.000Z,79.3
2022-09-14T12:57:56.000Z,80
2022-09-14T12:59:11.000Z,79
2022-09-14T13:00:27.000Z,78.8
2022-09-14T13:01:44.000Z,78
2022-09-14T13:03:00.000Z,77.9
2022-09-14T13:04:16.000Z,77.9
2022-09-14T13:05:32.000Z,78.9
2022-09-14T13:06:48.000Z,79.3
2022-09-14T13:08:05.000Z,79.7
2022-09-14T13:09:21.000Z,79.9
2022-09-14T13:10:37.000Z,79.5
2022-09-14T13:11:53.000Z,79.6
2022-09-14T13:13:09.000Z,80.2
2022-09-14T13:14:26.000Z,80.3
2022-09-14T13:15:41.000Z,80.3
2022-09-14T13:16:57.000Z,80.5
2022-09-14T13:18:12.000Z,80.2
2022-09-14T13:19:27.000Z,79.8
2022-09-14T13:20:43.000Z,79.8
2022-09-14T13:21:58.000Z,79.5
2022-09-14T13:23:14.000Z,79.7
2022-09-14T13:24:30.000Z,79.1
2022-09-14T13:25:46.000Z,79.7
2022-09-14T13:27:03.000Z,79.6
2022-09-14T13:28:19.000Z,79.7
2022-09-14T13:29:35.000Z,80.7
2022-09-14T13:30:51.000Z,80.8
2022-09-14T13:32:07.000Z,80.7
2022-09-14T13:34:40.000Z,80.2
2022-09-14T13:35:56.000Z,80.2
2022-09-14T13:37:12.000Z,80.7
2022-09-14T13:38:27.000Z,80.6
2022-09-14T13:39:44.000Z,80.6
2022-09-14T13:41:00.000Z,80.5
2022-09-14T13:42:16.000Z,80.8
2022-09-14T13:43:32.000Z,81.5
2022-09-14T13:44:48.000Z,82.8
2022-09-14T13:47:21.000Z,83.8
2022-09-14T13:48:37.000Z,83.7
2022-09-14T13:49:52.000Z,83.5
2022-09-14T13:51:07.000Z,83.1
2022-09-14T13:52:23.000Z,82.4
2022-09-14T13:53:38.000Z,82.3
2022-09-14T13:54:54.000Z,82.3
2022-09-14T13:56:10.000Z,82.7
2022-09-14T13:57:26.000Z,81.8
2022-09-14T13:58:43.000Z,81
2022-09-14T13:59:59.000Z,80.9
2022-09-14T14:01:15.000Z,81.3
2022-09-14T14:02:31.000Z,81.2
2022-09-14T14:03:47.000Z,81.2
2022-09-14T14:05:04.000Z,81.2
2022-09-14T14:06:20.000Z,80.6
2022-09-14T14:07:36.000Z,81
2022-09-14T14:08:52.000Z,81.2
2022-09-14T14:10:07.000Z,81
2022-09-14T14:11:24.000Z,81.3
2022-09-14T14:12:40.000Z,81.6
2022-09-14T14:13:56.000Z,81.3
2022-09-14T14:15:12.000Z,81.9
2022-09-14T14:16:28.000Z,80.8
2022-09-14T14:17:45.000Z,80.5
2022-09-14T14:19:00.000Z,81
2022-09-14T14:20:15.000Z,81.6
2022-09-14T14:21:31.000Z,81
2022-09-14T14:22:47.000Z,81.3
2022-09-14T14:24:03.000Z,81.3
2022-09-14T14:25:19.000Z,81.3
2022-09-14T14:26:34.000Z,81.5
2022-09-14T14:27:50.000Z,81
2022-09-14T14:29:06.000Z,81
2022-09-14T14:30:23.000Z,81.1
2022-09-14T14:31:39.000Z,80.3
2022-09-14T14:32:55.000Z,79.9
2022-09-14T14:34:11.000Z,80.9
2022-09-14T14:35:27.000Z,81.5
2022-09-14T14:38:00.000Z,82
2022-09-14T14:39:16.000Z,82.3
2022-09-14T14:40:32.000Z,82.6
2022-09-14T14:41:48.000Z,82.6
2022-09-14T14:43:04.000Z,82.3
2022-09-14T14:44:20.000Z,81.6
2022-09-14T14:45:36.000Z,81.7
2022-09-14T14:46:52.000Z,81.3
2022-09-14T14:48:08.000Z,81.3
2022-09-14T14:49:25.000Z,81.3
2022-09-14T14:50:41.000Z,81.9
2022-09-14T14:51:56.000Z,81.4
2022-09-14T14:53:11.000Z,81.3
2022-09-14T14:54:27.000Z,81
2022-09-14T14:55:43.000Z,80.5
2022-09-14T14:56:58.000Z,80
2022-09-14T14:58:14.000Z,80.3
2022-09-14T14:59:30.000Z,80.7
2022-09-14T15:00:46.000Z,80.8
2022-09-14T15:02:03.000Z,81.3
2022-09-14T15:03:19.000Z,81.6
2022-09-14T15:04:35.000Z,81.8
2022-09-14T15:05:51.000Z,81.2
2022-09-14T15:07:07.000Z,81.6
2022-09-14T15:08:24.000Z,81.7
2022-09-14T15:10:56.000Z,81.6
2022-09-14T15:12:12.000Z,81.8
2022-09-14T15:13:27.000Z,80
2022-09-14T15:16:00.000Z,79.1
2022-09-14T15:17:15.000Z,79.4
2022-09-14T15:18:30.000Z,80
2022-09-14T15:19:46.000Z,80.3
2022-09-14T15:21:03.000Z,80.5
2022-09-14T15:22:19.000Z,80.7
2022-09-14T15:23:35.000Z,80.8
2022-09-14T15:24:51.000Z,80.6
2022-09-14T15:26:07.000Z,80.9
2022-09-14T15:27:24.000Z,80.9
2022-09-14T15:28:40.000Z,80.8
2022-09-14T15:29:56.000Z,81.6
2022-09-14T15:31:11.000Z,81.6
2022-09-14T15:32:26.000Z,81.7
2022-09-14T15:33:43.000Z,81.2
2022-09-14T15:34:59.000Z,81.8
2022-09-14T15:36:15.000Z,81.9
2022-09-14T15:37:31.000Z,81.7
2022-09-14T15:38:47.000Z,82
2022-09-14T15:40:04.000Z,82.2
2022-09-14T15:41:20.000Z,82
2022-09-14T15:42:36.000Z,82.5
2022-09-14T15:43:52.000Z,83.1
2022-09-14T15:45:08.000Z,83.3
2022-09-14T15:46:25.000Z,83.5
2022-09-14T15:47:41.000Z,83.4
2022-09-14T15:48:56.000Z,83.4
2022-09-14T15:50:12.000Z,83.4
2022-09-14T15:51:28.000Z,83
2022-09-14T15:52:45.000Z,83.3
2022-09-14T15:54:01.000Z,83.2
2022-09-14T15:55:17.000Z,82.5
2022-09-14T15:56:33.000Z,83.1
2022-09-14T15:57:48.000Z,83.5
2022-09-14T15:59:04.000Z,84
2022-09-14T16:00:20.000Z,84.2
2022-09-14T16:01:36.000Z,84.4
2022-09-14T16:02:52.000Z,84.5
2022-09-14T16:04:08.000Z,83.7
2022-09-14T16:05:25.000Z,83.8
2022-09-14T16:06:41.000Z,84.7
2022-09-14T16:07:57.000Z,84.9
2022-09-14T16:09:13.000Z,85.4
2022-09-14T16:10:29.000Z,85.5
2022-09-14T16:11:46.000Z,85.8
2022-09-14T16:13:02.000Z,85.7
2022-09-14T16:14:18.000Z,85.4
2022-09-14T16:15:33.000Z,85.9
2022-09-14T16:16:49.000Z,86
2022-09-14T16:19:22.000Z,86.1
2022-09-14T16:20:38.000Z,86
2022-09-14T16:21:54.000Z,86
2022-09-14T16:23:10.000Z,86.3
2022-09-14T16:24:26.000Z,86.5
2022-09-14T16:25:42.000Z,86.3
2022-09-14T16:26:57.000Z,86.7
2022-09-14T16:28:12.000Z,86.6
2022-09-14T16:29:27.000Z,86.6
2022-09-14T16:30:44.000Z,86.6
2022-09-14T16:32:00.000Z,87.1
2022-09-14T16:33:16.000Z,87.2
2022-09-14T16:34:32.000Z,87.3
2022-09-14T16:35:48.000Z,87.1
2022-09-14T16:37:05.000Z,86.3
2022-09-14T16:38:21.000Z,86.2
2022-09-14T16:39:37.000Z,86.5
2022-09-14T16:40:53.000Z,86.7
2022-09-14T16:42:09.000Z,86.7
2022-09-14T16:43:26.000Z,86.3
2022-09-14T16:44:42.000Z,86
2022-09-14T16:45:57.000Z,86
2022-09-14T16:47:13.000Z,85.9
2022-09-14T16:48:29.000Z,85.9
2022-09-14T16:49:46.000Z,86
2022-09-14T16:51:02.000Z,85.8
2022-09-14T16:52:18.000Z,85.6
2022-09-14T16:53:34.000Z,85.8
2022-09-14T16:54:49.000Z,85.8
2022-09-14T16:57:21.000Z,85.7
2022-09-14T16:58:37.000Z,85.4
2022-09-14T16:59:52.000Z,85.2
2022-09-14T17:01:07.000Z,85.3
2022-09-14T17:02:24.000Z,85.6
2022-09-14T17:03:40.000Z,85.5
2022-09-14T17:04:56.000Z,85.6
2022-09-14T17:06:12.000Z,85.6
2022-09-14T17:07:28.000Z,85.8
2022-09-14T17:08:45.000Z,85.9
2022-09-14T17:10:01.000Z,86
2022-09-14T17:11:17.000Z,86
2022-09-14T17:12:33.000Z,86
2022-09-14T17:13:48.000Z,86.5
2022-09-14T17:15:05.000Z,86.5
2022-09-14T17:16:21.000Z,86.7
2022-09-14T17:17:37.000Z,86.5
2022-09-14T17:18:53.000Z,86.5
2022-09-14T17:20:09.000Z,86.3
2022-09-14T17:21:26.000Z,86.2
2022-09-14T17:22:42.000Z,86.1
2022-09-14T17:23:58.000Z,86
2022-09-14T17:25:14.000Z,86
2022-09-14T17:26:29.000Z,85.9
2022-09-14T17:27:45.000Z,85.9
2022-09-14T17:29:01.000Z,85.9
2022-09-14T17:30:17.000Z,85.9
2022-09-14T17:31:33.000Z,85.9
2022-09-14T17:32:49.000Z,85.8
2022-09-14T17:34:05.000Z,85.5